Time;durP1;ratioP1;P1;durP2;ratioP2;P2;SDS_P1;SDS_P2;PMS_P1;PMS_P2;Temp;Humidity;BMP_temperature;BMP_pressure;BME280_temperature;BME280_humidity;BME280_pressure;Samples;Min_cycle;Max_cycle;Signal;HPM_P1;HPM_P2
2022/11/05 00:09:28;;;;;;;;;18.25;15.25;;;;;;;;5095556;27;45272;-73
2022/11/05 00:17:00;;;;;;;;;22.50;20.25;;;;;;;;5094093;27;45260;-73
2022/11/05 00:19:25;;;;;;;;;19.25;16.50;;;;;;;;5099877;27;45383;-73
2022/11/05 00:25:45;;;;;;;;;21.25;19.75;;;;;;;;5028974;27;45433;-73
2022/11/05 00:27:39;;;;;;;;;17.25;15.50;;;;;;;;5087493;27;45528;-73
2022/11/05 00:30:06;;;;;;;;;21.75;15.75;;;;;;;;5100814;27;45391;-73
2022/11/05 00:32:31;;;;;;;;;15.25;14.25;;;;;;;;5088740;27;45348;-73
2022/11/05 00:34:56;;;;;;;;;16.00;15.00;;;;;;;;5094717;27;45582;-73
2022/11/05 00:37:22;;;;;;;;;13.75;10.50;;;;;;;;5090432;27;45269;-73
2022/11/05 00:39:47;;;;;;;;;13.50;13.50;;;;;;;;5076300;27;45425;-73
2022/11/05 00:45:02;;;;;;;;;16.00;15.00;;;;;;;;5096670;27;45317;-73
2022/11/05 00:50:12;;;;;;;;;23.25;17.25;;;;;;;;5089991;27;45437;-73
2022/11/05 00:52:55;;;;;;;;;15.75;15.75;;;;;;;;5089773;27;45274;-73
2022/11/05 00:55:37;;;;;;;;;24.25;15.25;;;;;;;;5091371;27;45506;-73
2022/11/05 00:58:03;;;;;;;;;20.75;15.25;;;;;;;;5093645;27;45603;-73
2022/11/05 01:00:30;;;;;;;;;17.00;15.00;;;;;;;;5098305;27;45350;-73
2022/11/05 01:03:03;;;;;;;;;17.75;15.00;;;;;;;;5092567;27;45306;-73
2022/11/05 01:05:28;;;;;;;;;16.50;13.50;;;;;;;;5099989;27;45421;-73
2022/11/05 01:07:54;;;;;;;;;16.75;16.25;;;;;;;;5081941;27;45445;-73
2022/11/05 01:10:20;;;;;;;;;25.50;16.25;;;;;;;;5094397;27;45253;-73
2022/11/05 01:12:45;;;;;;;;;17.25;15.75;;;;;;;;5089341;27;45324;-73
2022/11/05 01:15:10;;;;;;;;;19.75;17.00;;;;;;;;5094732;27;45438;-73
2022/11/05 01:17:35;;;;;;;;;16.75;15.25;;;;;;;;5088589;27;45490;-73
2022/11/05 01:20:01;;;;;;;;;18.75;14.00;;;;;;;;5079867;27;45351;-73
2022/11/05 01:22:26;;;;;;;;;17.25;14.25;;;;;;;;5089399;27;45244;-73
2022/11/05 01:24:51;;;;;;;;;17.50;14.75;;;;;;;;5094646;27;45577;-73
2022/11/05 01:27:16;;;;;;;;;16.00;14.50;;;;;;;;5094310;27;45459;-73
2022/11/05 01:29:41;;;;;;;;;22.00;16.00;;;;;;;;5095370;27;45277;-73
2022/11/05 01:32:07;;;;;;;;;16.00;15.75;;;;;;;;5091091;27;45209;-73
2022/11/05 01:34:32;;;;;;;;;20.25;16.50;;;;;;;;5095815;27;45808;-73
2022/11/05 01:36:57;;;;;;;;;15.00;14.00;;;;;;;;5093181;27;45225;-73
2022/11/05 01:39:22;;;;;;;;;21.00;16.25;;;;;;;;5097736;27;45404;-73
2022/11/05 01:41:48;;;;;;;;;15.25;14.50;;;;;;;;5083399;27;45284;-73
2022/11/05 01:44:32;;;;;;;;;19.25;15.00;;;;;;;;5090885;27;46153;-73
2022/11/05 01:46:57;;;;;;;;;19.50;16.25;;;;;;;;5083949;27;45458;-73
2022/11/05 01:49:22;;;;;;;;;16.25;15.75;;;;;;;;5087365;27;45429;-73
2022/11/05 01:51:48;;;;;;;;;20.00;16.75;;;;;;;;5093441;27;45384;-73
2022/11/05 01:54:15;;;;;;;;;15.50;15.50;;;;;;;;5080164;27;45371;-73
2022/11/05 01:56:42;;;;;;;;;13.25;12.75;;;;;;;;5100521;27;46532;-73
2022/11/05 01:59:07;;;;;;;;;20.00;15.00;;;;;;;;5075135;27;45604;-73
2022/11/05 02:01:32;;;;;;;;;13.50;13.25;;;;;;;;5091230;27;45401;-73
2022/11/05 02:04:00;;;;;;;;;15.75;15.50;;;;;;;;5098182;27;45297;-73
2022/11/05 02:06:27;;;;;;;;;20.00;16.00;;;;;;;;5098607;27;45678;-72
2022/11/05 02:08:56;;;;;;;;;14.50;13.00;;;;;;;;5070061;27;45513;-72
2022/11/05 02:11:21;;;;;;;;;15.25;15.00;;;;;;;;5096954;27;45351;-73
2022/11/05 02:13:47;;;;;;;;;16.25;16.25;;;;;;;;5085835;27;45206;-73
2022/11/05 02:16:26;;;;;;;;;15.00;13.50;;;;;;;;5081946;27;47202;-73
2022/11/05 02:19:16;;;;;;;;;15.50;12.75;;;;;;;;5081285;27;45377;-73
2022/11/05 02:22:04;;;;;;;;;10.75;10.75;;;;;;;;5095830;27;45383;-73
2022/11/05 02:24:29;;;;;;;;;13.00;13.00;;;;;;;;5069282;27;45815;-73
2022/11/05 02:26:58;;;;;;;;;15.75;14.50;;;;;;;;5077907;27;48492;-73
2022/11/05 02:29:28;;;;;;;;;13.25;12.75;;;;;;;;5097960;27;45161;-73
2022/11/05 02:32:06;;;;;;;;;13.75;13.00;;;;;;;;5091511;27;45473;-73
2022/11/05 02:34:44;;;;;;;;;14.25;14.25;;;;;;;;5091352;27;45474;-73
2022/11/05 02:37:28;;;;;;;;;14.00;13.50;;;;;;;;5065143;28;46330;-73
2022/11/05 02:40:03;;;;;;;;;18.25;14.50;;;;;;;;5091269;27;45284;-73
2022/11/05 02:42:33;;;;;;;;;14.75;13.00;;;;;;;;5089694;27;45258;-73
2022/11/05 02:45:17;;;;;;;;;16.00;14.25;;;;;;;;5080718;27;45529;-74
2022/11/05 02:48:01;;;;;;;;;18.25;12.75;;;;;;;;5084291;27;45527;-74
2022/11/05 02:50:33;;;;;;;;;15.00;13.25;;;;;;;;5079232;27;45350;-74
2022/11/05 02:53:01;;;;;;;;;15.00;13.50;;;;;;;;5083490;27;45480;-72
2022/11/05 02:55:26;;;;;;;;;14.25;13.00;;;;;;;;5080272;27;45391;-72
2022/11/05 02:57:51;;;;;;;;;15.25;12.50;;;;;;;;5085669;27;45334;-72
2022/11/05 03:00:35;;;;;;;;;16.00;14.25;;;;;;;;5084444;27;45349;-73
2022/11/05 03:03:02;;;;;;;;;15.25;14.00;;;;;;;;5088631;27;45560;-72
2022/11/05 03:05:30;;;;;;;;;14.50;11.25;;;;;;;;5091709;27;47982;-72
2022/11/05 03:08:01;;;;;;;;;17.75;13.75;;;;;;;;5087172;27;45259;-72
2022/11/05 03:10:50;;;;;;;;;16.50;14.00;;;;;;;;5085084;27;45251;-72
2022/11/05 03:13:21;;;;;;;;;11.75;9.00;;;;;;;;5078704;27;45249;-72
2022/11/05 03:15:52;;;;;;;;;13.00;11.25;;;;;;;;5088112;27;47301;-72
2022/11/05 03:18:21;;;;;;;;;9.75;9.75;;;;;;;;5081214;27;45243;-72
2022/11/05 03:20:55;;;;;;;;;13.25;10.25;;;;;;;;5088076;27;45254;-72
2022/11/05 03:23:23;;;;;;;;;13.50;12.75;;;;;;;;5084080;27;46194;-72
2022/11/05 03:25:52;;;;;;;;;12.00;9.50;;;;;;;;5083343;27;45353;-72
2022/11/05 03:28:21;;;;;;;;;9.00;7.75;;;;;;;;5089017;27;45245;-72
2022/11/05 03:30:47;;;;;;;;;14.00;13.00;;;;;;;;5077508;27;45367;-72
2022/11/05 03:33:16;;;;;;;;;13.25;12.00;;;;;;;;5091120;27;45331;-72
2022/11/05 03:35:44;;;;;;;;;13.00;10.75;;;;;;;;5080644;27;45254;-72
2022/11/05 03:38:11;;;;;;;;;12.00;12.00;;;;;;;;5094355;27;45354;-72
2022/11/05 03:40:37;;;;;;;;;12.00;12.00;;;;;;;;5082788;27;45525;-72
2022/11/05 03:43:06;;;;;;;;;14.00;10.75;;;;;;;;5078714;27;45235;-72
2022/11/05 03:45:33;;;;;;;;;13.00;12.00;;;;;;;;5098484;27;46045;-72
2022/11/05 03:48:00;;;;;;;;;9.50;8.25;;;;;;;;5098008;27;45271;-72
2022/11/05 03:50:36;;;;;;;;;13.00;11.25;;;;;;;;5098597;27;45363;-72
2022/11/05 03:53:06;;;;;;;;;11.25;11.25;;;;;;;;5081442;27;46015;-72
2022/11/05 03:55:34;;;;;;;;;14.50;9.75;;;;;;;;5080481;27;47270;-72
2022/11/05 03:57:59;;;;;;;;;9.75;9.25;;;;;;;;5094242;27;45322;-72
2022/11/05 04:00:25;;;;;;;;;10.50;9.75;;;;;;;;5085524;27;45374;-72
2022/11/05 04:02:50;;;;;;;;;14.75;10.00;;;;;;;;5093918;27;45477;-72
2022/11/05 04:05:15;;;;;;;;;14.75;13.50;;;;;;;;5091575;27;45452;-72
2022/11/05 04:13:26;;;;;;;;;16.25;12.50;;;;;;;;5082872;27;45378;-73
2022/11/05 04:18:36;;;;;;;;;8.75;8.75;;;;;;;;5087446;27;45398;-72
2022/11/05 04:26:30;;;;;;;;;14.00;9.00;;;;;;;;5092322;27;45251;-72
2022/11/05 04:31:39;;;;;;;;;8.25;8.25;;;;;;;;5089137;27;45474;-72
2022/11/05 04:34:04;;;;;;;;;10.25;9.00;;;;;;;;5093692;27;45369;-72
2022/11/05 04:36:30;;;;;;;;;15.50;10.50;;;;;;;;5090176;27;46213;-72
2022/11/05 04:38:55;;;;;;;;;12.50;8.25;;;;;;;;5098080;27;45492;-72
2022/11/05 04:41:20;;;;;;;;;8.50;8.50;;;;;;;;5095182;27;45521;-72
2022/11/05 04:43:45;;;;;;;;;8.25;8.25;;;;;;;;5099435;27;44941;-73
2022/11/05 04:46:10;;;;;;;;;12.25;9.50;;;;;;;;5084274;27;45288;-72
2022/11/05 04:48:36;;;;;;;;;11.50;8.75;;;;;;;;5085935;27;45581;-72
2022/11/05 04:51:02;;;;;;;;;9.25;9.25;;;;;;;;5085365;27;45262;-72
2022/11/05 04:53:27;;;;;;;;;13.75;9.50;;;;;;;;5093776;27;45265;-72
2022/11/05 04:55:52;;;;;;;;;12.50;9.25;;;;;;;;5087811;27;45379;-72
2022/11/05 04:58:17;;;;;;;;;10.75;9.50;;;;;;;;5098935;27;45335;-72
2022/11/05 05:00:43;;;;;;;;;14.25;10.00;;;;;;;;5085475;27;45499;-72
2022/11/05 05:03:08;;;;;;;;;8.00;8.00;;;;;;;;5084880;27;45658;-74
2022/11/05 05:05:33;;;;;;;;;12.50;10.50;;;;;;;;5088235;27;46430;-73
2022/11/05 05:08:03;;;;;;;;;9.25;9.25;;;;;;;;5067252;28;45891;-74
2022/11/05 05:10:28;;;;;;;;;8.75;8.25;;;;;;;;5091203;27;45409;-73
2022/11/05 05:12:54;;;;;;;;;13.25;10.75;;;;;;;;5088541;27;45345;-72
2022/11/05 05:15:19;;;;;;;;;9.50;9.50;;;;;;;;5080052;27;47941;-73
2022/11/05 05:17:48;;;;;;;;;10.00;10.00;;;;;;;;5092320;27;45219;-73
2022/11/05 05:21:37;;;;;;;;;13.75;13.75;;;;;;;;5093534;27;45369;-76
2022/11/05 05:23:14;;;;;;;;;13.00;9.25;;;;;;;;5093360;27;45233;-76
2022/11/05 05:25:39;;;;;;;;;15.00;11.50;;;;;;;;5081336;27;45630;-76
2022/11/05 05:28:04;;;;;;;;;17.75;12.75;;;;;;;;5096254;27;45252;-76
2022/11/05 05:30:29;;;;;;;;;9.75;8.75;;;;;;;;5087610;27;45398;-76
2022/11/05 05:32:55;;;;;;;;;16.25;12.00;;;;;;;;5097703;27;45195;-77
2022/11/05 05:35:20;;;;;;;;;13.00;12.50;;;;;;;;5077682;28;47025;-77
2022/11/05 05:37:45;;;;;;;;;14.00;11.50;;;;;;;;5084223;27;45458;-76
2022/11/05 05:40:10;;;;;;;;;10.00;10.00;;;;;;;;5084971;27;45315;-76
2022/11/05 05:42:35;;;;;;;;;12.50;11.50;;;;;;;;5085691;27;45423;-76
2022/11/05 05:45:01;;;;;;;;;16.00;13.00;;;;;;;;5082879;27;46128;-77
2022/11/05 05:47:26;;;;;;;;;13.00;9.00;;;;;;;;5082868;27;45208;-77
2022/11/05 05:49:51;;;;;;;;;13.50;13.25;;;;;;;;5087360;27;45418;-77
2022/11/05 05:52:16;;;;;;;;;11.25;11.25;;;;;;;;5064652;27;45730;-77
2022/11/05 05:54:41;;;;;;;;;10.50;10.50;;;;;;;;5091110;27;45265;-75
2022/11/05 05:57:07;;;;;;;;;12.50;11.25;;;;;;;;5093680;27;45170;-76
2022/11/05 05:59:32;;;;;;;;;12.50;12.50;;;;;;;;5095963;27;45240;-76
2022/11/05 06:01:57;;;;;;;;;17.25;14.00;;;;;;;;5083394;27;45541;-75
2022/11/05 06:04:22;;;;;;;;;16.00;14.00;;;;;;;;5083504;27;45403;-76
2022/11/05 06:06:48;;;;;;;;;15.50;13.75;;;;;;;;5083005;27;45194;-75
2022/11/05 06:09:13;;;;;;;;;13.00;11.75;;;;;;;;5082579;27;45434;-75
2022/11/05 06:11:39;;;;;;;;;17.00;12.00;;;;;;;;5066439;27;45838;-75
2022/11/05 06:14:04;;;;;;;;;10.50;10.50;;;;;;;;5083762;27;45457;-76
2022/11/05 06:16:34;;;;;;;;;11.75;9.00;;;;;;;;5083974;27;45604;-76
2022/11/05 06:18:59;;;;;;;;;12.25;10.25;;;;;;;;5066061;27;45270;-76
2022/11/05 06:21:24;;;;;;;;;14.25;10.75;;;;;;;;5081619;27;45575;-76
2022/11/05 06:23:49;;;;;;;;;13.25;10.25;;;;;;;;5081857;27;46136;-76
2022/11/05 06:26:16;;;;;;;;;10.25;9.25;;;;;;;;5079551;27;45269;-76
2022/11/05 06:28:42;;;;;;;;;12.00;9.00;;;;;;;;5080660;27;45398;-77
2022/11/05 06:31:08;;;;;;;;;14.00;10.25;;;;;;;;5081604;27;45616;-76
2022/11/05 06:33:33;;;;;;;;;9.75;8.25;;;;;;;;5081039;27;45596;-77
2022/11/05 06:35:59;;;;;;;;;13.75;9.00;;;;;;;;5082906;27;45394;-76
2022/11/05 06:38:24;;;;;;;;;9.50;8.75;;;;;;;;5079822;27;45423;-76
2022/11/05 06:40:49;;;;;;;;;11.75;8.25;;;;;;;;5082490;27;45457;-77
2022/11/05 06:43:14;;;;;;;;;15.50;9.75;;;;;;;;5077760;27;47224;-76
2022/11/05 06:45:39;;;;;;;;;9.25;9.25;;;;;;;;5081940;27;46144;-77
2022/11/05 06:48:05;;;;;;;;;9.25;8.00;;;;;;;;5087926;27;45840;-76
2022/11/05 06:50:30;;;;;;;;;9.50;8.25;;;;;;;;5089354;27;45384;-76
2022/11/05 06:52:56;;;;;;;;;12.75;8.50;;;;;;;;5079774;27;45408;-76
2022/11/05 06:55:21;;;;;;;;;11.00;10.00;;;;;;;;5080029;27;45572;-76
2022/11/05 06:57:47;;;;;;;;;10.75;10.75;;;;;;;;5083738;27;46223;-76
2022/11/05 07:00:13;;;;;;;;;9.00;7.75;;;;;;;;5078848;27;45475;-77
2022/11/05 07:02:38;;;;;;;;;13.00;12.00;;;;;;;;5078931;27;45346;-76
2022/11/05 07:05:06;;;;;;;;;16.75;11.75;;;;;;;;5080596;27;45347;-76
2022/11/05 07:07:31;;;;;;;;;12.25;10.50;;;;;;;;5080117;27;45447;-77
2022/11/05 07:09:56;;;;;;;;;9.00;9.00;;;;;;;;5081700;27;45368;-77
2022/11/05 07:12:21;;;;;;;;;9.50;7.00;;;;;;;;5082250;27;46295;-77
2022/11/05 07:14:46;;;;;;;;;8.75;8.75;;;;;;;;5081873;27;45363;-77
2022/11/05 07:17:12;;;;;;;;;9.25;8.75;;;;;;;;5091416;27;45225;-78
2022/11/05 07:19:37;;;;;;;;;11.25;10.25;;;;;;;;5084242;27;45271;-78
2022/11/05 07:22:02;;;;;;;;;11.50;9.25;;;;;;;;5093354;27;45475;-77
2022/11/05 07:24:27;;;;;;;;;13.50;13.00;;;;;;;;5085979;27;45397;-78
2022/11/05 07:26:52;;;;;;;;;13.00;13.00;;;;;;;;5093549;27;45162;-77
2022/11/05 07:29:18;;;;;;;;;10.00;10.00;;;;;;;;5088141;27;45439;-77
2022/11/05 07:31:45;;;;;;;;;13.50;9.25;;;;;;;;5075137;27;47149;-76
2022/11/05 07:34:10;;;;;;;;;15.25;12.50;;;;;;;;5096100;27;45360;-77
2022/11/05 07:36:38;;;;;;;;;15.25;12.75;;;;;;;;5089199;27;45245;-77
2022/11/05 07:39:03;;;;;;;;;13.00;13.00;;;;;;;;5099027;27;45437;-78
2022/11/05 07:41:28;;;;;;;;;16.00;10.25;;;;;;;;5086222;27;46128;-76
2022/11/05 07:43:53;;;;;;;;;12.50;10.75;;;;;;;;5065854;27;45347;-73
2022/11/05 07:46:19;;;;;;;;;15.50;10.75;;;;;;;;5083175;27;45300;-76
2022/11/05 07:48:44;;;;;;;;;9.00;8.00;;;;;;;;5088653;27;45318;-76
2022/11/05 07:51:09;;;;;;;;;13.00;9.50;;;;;;;;5086119;27;46332;-76
2022/11/05 07:53:34;;;;;;;;;11.25;10.00;;;;;;;;5090699;27;45308;-73
2022/11/05 07:55:59;;;;;;;;;10.75;8.00;;;;;;;;5090007;27;45452;-73
2022/11/05 07:58:25;;;;;;;;;14.50;13.50;;;;;;;;5094638;27;45363;-73
2022/11/05 08:00:50;;;;;;;;;11.00;9.00;;;;;;;;5091203;27;46548;-72
2022/11/05 08:03:16;;;;;;;;;39.50;32.25;;;;;;;;5095162;27;45189;-73
2022/11/05 08:05:43;;;;;;;;;31.75;28.25;;;;;;;;5082892;27;45287;-73
2022/11/05 08:08:09;;;;;;;;;9.75;9.75;;;;;;;;5095730;27;45271;-73
2022/11/05 08:10:35;;;;;;;;;9.00;7.00;;;;;;;;5090399;27;45452;-73
2022/11/05 08:13:00;;;;;;;;;9.00;7.00;;;;;;;;5088760;27;45362;-73
2022/11/05 08:15:25;;;;;;;;;10.00;6.75;;;;;;;;5093747;27;44761;-73
2022/11/05 08:18:02;;;;;;;;;5.25;5.25;;;;;;;;5090926;27;45461;-73
2022/11/05 08:20:27;;;;;;;;;12.50;9.00;;;;;;;;5087474;27;47640;-73
2022/11/05 08:22:53;;;;;;;;;5.50;5.50;;;;;;;;5074766;27;45661;-73
2022/11/05 08:25:18;;;;;;;;;6.00;6.00;;;;;;;;5076362;28;45507;-74
2022/11/05 08:27:44;;;;;;;;;12.25;9.75;;;;;;;;5090842;27;45375;-73
2022/11/05 08:30:09;;;;;;;;;11.00;8.00;;;;;;;;5075534;28;46935;-73
2022/11/05 08:32:35;;;;;;;;;6.25;6.25;;;;;;;;5092216;27;45279;-73
2022/11/05 08:35:00;;;;;;;;;6.50;4.00;;;;;;;;5078019;28;45546;-73
2022/11/05 08:37:25;;;;;;;;;9.25;6.00;;;;;;;;5095207;27;45166;-73
2022/11/05 08:39:50;;;;;;;;;4.50;4.50;;;;;;;;5096656;27;45433;-73
2022/11/05 08:42:16;;;;;;;;;5.00;5.00;;;;;;;;5081503;27;45411;-72
2022/11/05 08:44:41;;;;;;;;;7.00;6.00;;;;;;;;5084232;27;45446;-72
2022/11/05 08:47:06;;;;;;;;;6.00;4.00;;;;;;;;5081482;27;45546;-72
2022/11/05 08:49:31;;;;;;;;;10.75;6.75;;;;;;;;5084529;27;45470;-72
2022/11/05 08:51:57;;;;;;;;;7.00;5.50;;;;;;;;5083558;27;45208;-72
2022/11/05 08:54:22;;;;;;;;;9.50;6.50;;;;;;;;5071995;27;45369;-70
2022/11/05 08:56:47;;;;;;;;;9.00;6.75;;;;;;;;5089678;27;45213;-71
2022/11/05 08:59:12;;;;;;;;;10.50;8.75;;;;;;;;5091235;27;45268;-71
2022/11/05 09:01:38;;;;;;;;;11.00;10.75;;;;;;;;5085521;27;45200;-70
2022/11/05 09:04:03;;;;;;;;;10.50;6.00;;;;;;;;5094059;27;45437;-74
2022/11/05 09:06:28;;;;;;;;;10.00;7.25;;;;;;;;5086615;27;45252;-75
2022/11/05 09:08:54;;;;;;;;;4.00;4.00;;;;;;;;5077867;27;46865;-75
2022/11/05 09:11:19;;;;;;;;;5.75;4.00;;;;;;;;5088695;27;45363;-75
2022/11/05 09:13:44;;;;;;;;;4.75;4.75;;;;;;;;5098851;27;45200;-75
2022/11/05 09:16:20;;;;;;;;;7.00;3.50;;;;;;;;5093243;27;45231;-75
2022/11/05 09:18:45;;;;;;;;;7.50;6.00;;;;;;;;5082192;27;46398;-74
2022/11/05 09:21:10;;;;;;;;;4.50;4.50;;;;;;;;5084875;27;45374;-74
2022/11/05 09:23:35;;;;;;;;;5.00;4.00;;;;;;;;5086309;27;45481;-75
2022/11/05 09:26:01;;;;;;;;;5.00;4.00;;;;;;;;5081844;27;45868;-74
2022/11/05 09:28:27;;;;;;;;;4.75;3.00;;;;;;;;5096143;27;44885;-74
2022/11/05 09:30:52;;;;;;;;;4.75;4.50;;;;;;;;5083511;27;45328;-74
2022/11/05 09:33:18;;;;;;;;;4.00;4.00;;;;;;;;5097674;27;45235;-74
2022/11/05 09:35:44;;;;;;;;;4.50;4.50;;;;;;;;5086474;27;45384;-72
2022/11/05 09:38:09;;;;;;;;;3.75;3.75;;;;;;;;5087683;27;45480;-73
2022/11/05 09:40:38;;;;;;;;;5.25;3.75;;;;;;;;5083592;27;45492;-75
2022/11/05 09:43:04;;;;;;;;;6.00;3.25;;;;;;;;5088898;27;45418;-74
2022/11/05 09:45:32;;;;;;;;;5.50;4.25;;;;;;;;5085843;27;45490;-74
2022/11/05 09:48:04;;;;;;;;;4.00;4.00;;;;;;;;5069562;27;46714;-74
2022/11/05 09:50:31;;;;;;;;;2.00;2.00;;;;;;;;5090515;27;45345;-72
2022/11/05 09:52:56;;;;;;;;;3.00;3.00;;;;;;;;5070501;27;45355;-72
2022/11/05 09:55:31;;;;;;;;;3.00;3.00;;;;;;;;5091411;27;45267;-72
2022/11/05 09:57:58;;;;;;;;;3.00;3.00;;;;;;;;5087539;27;45607;-73
2022/11/05 10:00:23;;;;;;;;;3.50;3.00;;;;;;;;5083363;27;45516;-73
2022/11/05 10:02:51;;;;;;;;;3.25;1.75;;;;;;;;5084103;27;45418;-74
2022/11/05 10:05:17;;;;;;;;;2.75;2.75;;;;;;;;5084911;27;44866;-74
2022/11/05 10:07:48;;;;;;;;;5.25;3.00;;;;;;;;5077568;28;47373;-73
2022/11/05 10:10:24;;;;;;;;;4.33;2.00;;;;;;;;5087610;27;45378;-73
2022/11/05 10:12:51;;;;;;;;;6.00;4.50;;;;;;;;5089676;27;45249;-74
2022/11/05 10:15:25;;;;;;;;;4.33;3.00;;;;;;;;5090382;27;45220;-73
2022/11/05 10:17:58;;;;;;;;;3.00;3.00;;;;;;;;5090531;27;46382;-74
2022/11/05 10:20:23;;;;;;;;;5.00;2.50;;;;;;;;5088779;27;45458;-74
2022/11/05 10:22:56;;;;;;;;;5.33;3.33;;;;;;;;5093142;27;45309;-74
2022/11/05 10:25:23;;;;;;;;;4.67;3.67;;;;;;;;5081426;27;45373;-74
2022/11/05 10:27:50;;;;;;;;;5.00;3.33;;;;;;;;5093167;27;46656;-74
2022/11/05 10:30:16;;;;;;;;;4.00;4.00;;;;;;;;5093584;27;45263;-74
2022/11/05 10:32:42;;;;;;;;;6.33;5.00;;;;;;;;5093253;27;45319;-74
2022/11/05 10:35:10;;;;;;;;;6.67;5.00;;;;;;;;5090865;27;45421;-74
2022/11/05 10:37:36;;;;;;;;;3.00;3.00;;;;;;;;5093212;27;45370;-74
2022/11/05 10:40:05;;;;;;;;;4.00;4.00;;;;;;;;5093153;27;45370;-74
2022/11/05 10:42:42;;;;;;;;;3.33;3.33;;;;;;;;5080510;27;45311;-73
2022/11/05 10:45:27;;;;;;;;;4.67;4.00;;;;;;;;5081510;27;45409;-73
2022/11/05 10:48:01;;;;;;;;;4.67;2.00;;;;;;;;5082123;27;45233;-73
2022/11/05 10:50:28;;;;;;;;;3.33;3.00;;;;;;;;5075023;27;45428;-73
2022/11/05 10:53:01;;;;;;;;;2.33;2.00;;;;;;;;5095769;27;45573;-73
2022/11/05 10:55:26;;;;;;;;;2.33;2.33;;;;;;;;5083696;27;45839;-74
2022/11/05 10:57:52;;;;;;;;;4.00;3.00;;;;;;;;5094497;27;45331;-74
2022/11/05 11:00:22;;;;;;;;;4.33;1.67;;;;;;;;5078293;27;45354;-74
2022/11/05 11:02:49;;;;;;;;;5.00;1.00;;;;;;;;5071101;27;45339;-74
2022/11/05 11:05:22;;;;;;;;;4.00;3.00;;;;;;;;5085572;27;45383;-74
2022/11/05 11:07:56;;;;;;;;;6.67;4.00;;;;;;;;5094811;27;46536;-73
2022/11/05 11:10:22;;;;;;;;;4.67;3.00;;;;;;;;5091178;27;45627;-73
2022/11/05 11:12:48;;;;;;;;;3.33;2.00;;;;;;;;5096050;27;45441;-73
2022/11/05 11:15:22;;;;;;;;;4.00;3.00;;;;;;;;5081298;27;46125;-72
2022/11/05 11:17:47;;;;;;;;;3.00;3.00;;;;;;;;5102264;27;45458;-73
2022/11/05 11:20:18;;;;;;;;;6.67;3.00;;;;;;;;5094612;27;45426;-73
2022/11/05 11:22:56;;;;;;;;;3.00;3.00;;;;;;;;5087299;27;45394;-72
2022/11/05 11:25:25;;;;;;;;;4.00;2.33;;;;;;;;5089326;27;45298;-71
2022/11/05 11:27:51;;;;;;;;;5.33;4.00;;;;;;;;5091700;27;45437;-73
2022/11/05 11:30:17;;;;;;;;;4.00;4.00;;;;;;;;5090928;27;45332;-73
2022/11/05 11:32:43;;;;;;;;;3.67;2.00;;;;;;;;5091486;27;45391;-73
2022/11/05 11:35:19;;;;;;;;;4.00;3.00;;;;;;;;5093765;27;45406;-74
2022/11/05 11:37:45;;;;;;;;;3.67;2.00;;;;;;;;5093957;27;46420;-72
2022/11/05 11:40:19;;;;;;;;;3.00;1.67;;;;;;;;5089535;27;45386;-73
2022/11/05 11:42:46;;;;;;;;;4.00;4.00;;;;;;;;5086772;27;45225;-73
2022/11/05 11:45:14;;;;;;;;;2.00;2.00;;;;;;;;5089773;27;45376;-73
2022/11/05 11:47:42;;;;;;;;;2.00;2.00;;;;;;;;5087438;27;46385;-72
2022/11/05 11:50:27;;;;;;;;;3.33;2.00;;;;;;;;5093767;27;45174;-72
2022/11/05 11:52:53;;;;;;;;;5.00;2.00;;;;;;;;5094711;27;45415;-72
2022/11/05 11:55:20;;;;;;;;;2.67;2.00;;;;;;;;5083279;27;45420;-73
2022/11/05 11:57:49;;;;;;;;;2.00;2.00;;;;;;;;5092890;27;45320;-73
2022/11/05 12:00:15;;;;;;;;;3.00;3.00;;;;;;;;5089255;27;45568;-71
2022/11/05 12:02:40;;;;;;;;;3.00;3.00;;;;;;;;5091547;27;45158;-71
2022/11/05 12:05:18;;;;;;;;;2.00;2.00;;;;;;;;5086933;27;45471;-71
2022/11/05 12:07:46;;;;;;;;;3.00;1.33;;;;;;;;5093067;27;45377;-74
2022/11/05 12:10:17;;;;;;;;;8.00;2.33;;;;;;;;5090275;27;45546;-74
2022/11/05 12:12:49;;;;;;;;;2.00;2.00;;;;;;;;5077409;27;45433;-73
2022/11/05 12:15:30;;;;;;;;;2.00;2.00;;;;;;;;5092975;27;45520;-74
2022/11/05 12:18:00;;;;;;;;;1.00;1.00;;;;;;;;5076865;27;46445;-74
2022/11/05 12:20:25;;;;;;;;;2.00;2.00;;;;;;;;5091342;27;46032;-74
2022/11/05 12:22:50;;;;;;;;;2.00;2.00;;;;;;;;5079379;27;45663;-72
2022/11/05 12:25:35;;;;;;;;;1.00;1.00;;;;;;;;5085896;27;45856;-73
2022/11/05 12:28:21;;;;;;;;;1.33;1.00;;;;;;;;5086146;27;45257;-74
2022/11/05 12:30:52;;;;;;;;;3.33;3.00;;;;;;;;5087274;27;45750;-73
2022/11/05 12:33:22;;;;;;;;;3.00;3.00;;;;;;;;5090436;27;45387;-73
2022/11/05 12:35:56;;;;;;;;;3.00;2.00;;;;;;;;5087822;27;45662;-72
2022/11/05 12:38:54;;;;;;;;;2.33;1.33;;;;;;;;5092031;27;45406;-73
2022/11/05 12:41:35;;;;;;;;;1.00;1.00;;;;;;;;5029366;27;45581;-72
2022/11/05 12:44:08;;;;;;;;;44.75;31.50;;;;;;;;5099816;27;45326;-73
2022/11/05 12:46:38;;;;;;;;;4.00;4.00;;;;;;;;5086065;27;45346;-73
2022/11/05 12:49:03;;;;;;;;;3.67;1.00;;;;;;;;5092504;27;45288;-72
2022/11/05 12:51:47;;;;;;;;;3.00;2.00;;;;;;;;5087667;27;45209;-72
2022/11/05 12:54:22;;;;;;;;;3.00;1.67;;;;;;;;5094246;27;45236;-72
2022/11/05 12:56:57;;;;;;;;;3.00;2.00;;;;;;;;5094509;27;45208;-72
2022/11/05 12:59:30;;;;;;;;;1.67;1.33;;;;;;;;5094019;27;45451;-72
2022/11/05 13:02:00;;;;;;;;;1.67;1.00;;;;;;;;5096902;27;45300;-72
2022/11/05 13:04:37;;;;;;;;;2.33;2.33;;;;;;;;5078099;27;45539;-74
2022/11/05 13:07:05;;;;;;;;;2.67;2.00;;;;;;;;5091317;27;45348;-75
2022/11/05 13:09:34;;;;;;;;;3.00;1.00;;;;;;;;5077806;28;47002;-73
2022/11/05 13:12:08;;;;;;;;;1.33;1.00;;;;;;;;5090984;27;45252;-73
2022/11/05 13:14:42;;;;;;;;;1.67;1.67;;;;;;;;5088803;27;45608;-74
2022/11/05 13:17:13;;;;;;;;;4.33;1.33;;;;;;;;5098782;27;45231;-74
2022/11/05 13:19:47;;;;;;;;;1.33;1.33;;;;;;;;5090259;27;45158;-75
2022/11/05 13:22:16;;;;;;;;;4.00;2.00;;;;;;;;5096180;27;45256;-75
2022/11/05 13:24:49;;;;;;;;;2.00;2.00;;;;;;;;5098180;27;45230;-76
2022/11/05 13:27:17;;;;;;;;;4.00;4.00;;;;;;;;5092153;27;45434;-75
2022/11/05 13:29:53;;;;;;;;;6.00;3.67;;;;;;;;5099220;27;46319;-76
2022/11/05 13:32:26;;;;;;;;;3.00;3.00;;;;;;;;5093072;27;44746;-78
2022/11/05 13:34:54;;;;;;;;;5.00;3.00;;;;;;;;5081512;27;45526;-77
2022/11/05 13:40:08;;;;;;;;;7.00;4.00;;;;;;;;5093107;27;45853;-76
2022/11/05 13:42:39;;;;;;;;;6.67;5.00;;;;;;;;5104258;27;45265;-76
2022/11/05 13:45:19;;;;;;;;;7.33;5.00;;;;;;;;5092705;27;45395;-76
2022/11/05 13:48:14;;;;;;;;;6.67;6.00;;;;;;;;5064254;28;45580;-77
2022/11/05 13:50:52;;;;;;;;;12.00;10.33;;;;;;;;5091038;27;45468;-76
2022/11/05 13:53:38;;;;;;;;;9.00;6.00;;;;;;;;5098826;27;45313;-76
2022/11/05 13:56:20;;;;;;;;;7.33;6.00;;;;;;;;5095622;27;44694;-77
2022/11/05 13:58:49;;;;;;;;;10.00;9.00;;;;;;;;5096399;27;45323;-77
2022/11/05 14:01:14;;;;;;;;;14.33;10.00;;;;;;;;5080415;27;47306;-76
2022/11/05 14:03:45;;;;;;;;;8.00;8.00;;;;;;;;5103237;27;44741;-76
2022/11/05 14:06:10;;;;;;;;;8.00;8.00;;;;;;;;5097546;27;45402;-78
2022/11/05 14:08:38;;;;;;;;;8.67;5.33;;;;;;;;5101462;27;45606;-76
2022/11/05 14:11:06;;;;;;;;;5.00;4.33;;;;;;;;5079662;27;45386;-76
2022/11/05 14:13:33;;;;;;;;;6.00;3.67;;;;;;;;5089713;27;45324;-76
2022/11/05 14:16:18;;;;;;;;;5.00;4.00;;;;;;;;5098907;27;45485;-79
2022/11/05 14:19:12;;;;;;;;;16.67;11.67;;;;;;;;5109142;27;45146;-79
2022/11/05 14:21:45;;;;;;;;;5.50;5.50;;;;;;;;5087434;27;45600;-75
2022/11/05 14:24:31;;;;;;;;;6.67;5.33;;;;;;;;5092486;27;44698;-74
2022/11/05 14:26:59;;;;;;;;;5.33;5.00;;;;;;;;5082639;27;45593;-78
2022/11/05 14:29:34;;;;;;;;;5.00;5.00;;;;;;;;5076370;27;45663;-76
2022/11/05 14:32:02;;;;;;;;;7.33;7.00;;;;;;;;5095772;27;45362;-75
2022/11/05 14:34:41;;;;;;;;;9.00;7.67;;;;;;;;5099422;27;45233;-78
2022/11/05 14:37:09;;;;;;;;;11.50;10.00;;;;;;;;5096645;27;45351;-80
2022/11/05 14:39:35;;;;;;;;;9.33;9.00;;;;;;;;5083141;27;44781;-76
2022/11/05 14:42:14;;;;;;;;;18.50;17.50;;;;;;;;5091095;27;45288;-78
2022/11/05 14:44:57;;;;;;;;;17.25;16.50;;;;;;;;5075886;27;45244;-78
2022/11/05 14:47:25;;;;;;;;;7.00;5.67;;;;;;;;5095566;27;45517;-79
2022/11/05 14:49:58;;;;;;;;;9.50;7.25;;;;;;;;5097727;27;45142;-80
2022/11/05 14:52:23;;;;;;;;;5.00;3.33;;;;;;;;5099165;27;45563;-77
2022/11/05 14:54:54;;;;;;;;;6.00;6.00;;;;;;;;5082972;27;45900;-80
2022/11/05 14:57:38;;;;;;;;;5.67;4.00;;;;;;;;5098278;27;45739;-79
2022/11/05 15:00:04;;;;;;;;;4.67;4.00;;;;;;;;5086908;27;45477;-79
2022/11/05 15:02:34;;;;;;;;;5.33;4.00;;;;;;;;5094488;27;45431;-79
2022/11/05 15:05:18;;;;;;;;;5.33;4.00;;;;;;;;5074280;27;45351;-77
2022/11/05 15:07:43;;;;;;;;;7.67;4.00;;;;;;;;5087401;27;45499;-79
2022/11/05 15:10:14;;;;;;;;;6.00;4.00;;;;;;;;5091397;27;45444;-79
2022/11/05 15:12:49;;;;;;;;;4.33;4.33;;;;;;;;5080346;27;47327;-80
2022/11/05 15:15:14;;;;;;;;;3.00;3.00;;;;;;;;5075476;27;45291;-80
2022/11/05 15:17:46;;;;;;;;;9.80;7.20;;;;;;;;5095469;27;45406;-78
2022/11/05 15:20:12;;;;;;;;;3.67;3.00;;;;;;;;5075533;28;45381;-80
2022/11/05 15:22:40;;;;;;;;;3.00;2.00;;;;;;;;5081856;27;45304;-76